5WN8 weather

Knight Sky Airport
Wausau, Wisconsin, United States

Public forecast

Using degrees Fahrenheit for public forecast. Weather courtesy of forecast.io.

METAR (pilot weather report)

Closest report is Wausau Downtown Airport, 11.5 nm (21.3 km) WSW. Retrieved 2019/08/24 22:54 UTC (40 minutes ago):

KAUW 242254Z AUTO 11007KT 10SM SCT049 22/11 A3022 RMK AO2 SLP237 T02220111

TAF (pilot weather forecast)

Closest forecast is Wausau Downtown Airport, 11.5 nm (21.3 km) WSW. Retrieved 2019/08/24 18:30 UTC (5 hours ago):

TAF KAUW 241729Z 2418/2518 14009KT P6SM BKN045 FM242100 14007KT P6SM SCT045 FM250100 12003KT P6SM SCT200 FM251500 14009KT P6SM SCT030 SCT150